Thunder radar more information blitzortung!


Radar de pluja more information rain snow radar


Visita la nostra xarxa de llocs de meteo:

Template documentation
and downloads

And another site



No particular awareness of the weather is required.    There are no Weather-warnings

Pagina Historial Weather Underground text

Diari Resum Desembre 18, 2017 Unitats:  Imperial    Mètric   Tant
« Previous Dia
SegĂźent Dia »
Diari Setmana Mensual Anual Personalitzada
  Maxima: Minima: Media:
Temperatura: TemperatureC °F 1.3 °F 5.6 °F
Punt de rosada: DewpointC °F -7.6 °F -1.9 °F
Humitat: Humidity % 41 % 58 %
Wind Speed: WindSpeedKMH mph 0.0 mph 4.4 mph
RĂ fegues de vent: WindSpeedGustKMH mph - -
Vent:- - SSE
Pression baro: PressurehPa in 1019.9 in -
Precipitacions: 0.0 in    
Historical Graphs
 
 
Dades de taula per Desembre 18, 2017
Temps Temperatura Punt de rosada Pression baro Vent Wind Speed RĂ fegues de vent Humitat Rainfall Rate (Hourly)
TemperatureC °F DewpointC °F PressurehPa in Calm     Humidity % HourlyPrecipMM in
00:00 4.8 °F -7.1 °F 1028.0 in East 3.2 mph 4.8 mph 42 % 0.0 in
00:02 4.7 °F -7.4 °F 1028.0 in West 3.7 mph 3.7 mph 41 % 0.0 in
00:05 4.6 °F -7.6 °F 1028.0 in NE 1.9 mph   41 % 0.0 in
00:09 4.7 °F -7.4 °F 1028.0 in North 5.0 mph 5.0 mph 41 % 0.0 in
00:10 3.0 °F -6.2 °F 1028.0 in NNE 3.2 mph 9.7 mph 51 % 0.0 in
00:20 3.1 °F -6.1 °F 1028.0 in NE 4.8 mph 4.8 mph 51 % 0.0 in
00:40 2.7 °F -6.2 °F 1030.0 in NNE 3.2 mph 4.8 mph 52 % 0.0 in
00:50 2.6 °F -6.3 °F 1029.0 in NE 3.2 mph 4.8 mph 52 % 0.0 in
01:00 2.4 °F -6.4 °F 1029.0 in NE 1.6 mph 6.4 mph 52 % 0.0 in
01:10 2.3 °F -6.6 °F 1029.0 in NE 3.2 mph 4.8 mph 52 % 0.0 in
01:20 2.0 °F -6.8 °F 1029.0 in NNW 4.8 mph 4.8 mph 52 % 0.0 in
01:30 2.0 °F -6.8 °F 1029.0 in West 3.2 mph 4.8 mph 52 % 0.0 in
01:40 1.8 °F -6.8 °F 1028.0 in WSW 3.2 mph 3.2 mph 53 % 0.0 in
01:50 1.4 °F -7.2 °F 1028.0 in SW 3.2 mph 4.8 mph 53 % 0.0 in
02:00 1.6 °F -6.9 °F 1028.0 in WSW 1.6 mph 4.8 mph 53 % 0.0 in
02:10 2.0 °F -6.3 °F 1028.0 in WSW 3.2 mph 4.8 mph 54 % 0.0 in
02:20 2.2 °F -5.9 °F 1029.0 in WSW 3.2 mph 6.4 mph 55 % 0.0 in
02:30 2.3 °F -5.6 °F 1029.0 in NE 1.6 mph 4.8 mph 56 % 0.0 in
02:40 2.6 °F -5.3 °F 1028.0 in Calm   3.2 mph 56 % 0.0 in
02:50 2.8 °F -5.1 °F 1028.0 in WSW 1.6 mph 4.8 mph 56 % 0.0 in
03:20 3.3 °F -4.7 °F 1029.0 in NNW 4.8 mph 4.8 mph 56 % 0.0 in
03:30 3.3 °F -4.7 °F 1029.0 in NE 1.6 mph 4.8 mph 56 % 0.0 in
03:40 3.3 °F -4.7 °F 1029.0 in NE 1.6 mph 4.8 mph 56 % 0.0 in
03:50 3.5 °F -4.4 °F 1028.0 in ENE 1.6 mph 3.2 mph 56 % 0.0 in
04:00 3.8 °F -3.9 °F 1028.0 in SW 3.2 mph 6.4 mph 57 % 0.0 in
04:10 4.0 °F -4.0 °F 1029.0 in NNE 1.6 mph 3.2 mph 56 % 0.0 in
04:20 4.2 °F -3.6 °F 1029.0 in NNE 3.2 mph 4.8 mph 57 % 0.0 in
10:26 4.5 °F -3.6 °F 1029.0 in ENE 5.6 mph 6.1 mph 56 % 0.0 in
10:27 4.4 °F -3.6 °F 1029.0 in NNE 7.4 mph 7.4 mph 56 % 0.0 in
10:32 4.4 °F -3.6 °F 1029.0 in NNE 3.7 mph 3.7 mph 56 % 0.0 in
10:34 4.4 °F -3.6 °F 1029.0 in North 4.2 mph 4.2 mph 56 % 0.0 in
10:35 4.4 °F -3.6 °F 1029.0 in ESE 3.7 mph 3.7 mph 56 % 0.0 in
10:40 4.5 °F -3.6 °F 1029.0 in NNE 5.6 mph 5.6 mph 56 % 0.0 in
10:43 4.6 °F -3.4 °F 1028.0 in ENE 3.7 mph 3.7 mph 56 % 0.0 in
10:45 4.6 °F -3.4 °F 1028.0 in ENE 5.6 mph 5.6 mph 56 % 0.0 in
10:50 4.7 °F -3.3 °F 1028.0 in NE 1.9 mph   56 % 0.0 in
10:51 4.7 °F -3.3 °F 1028.0 in NE 2.6 mph 2.6 mph 56 % 0.0 in
10:56 4.7 °F -3.3 °F 1028.0 in NE 3.9 mph 3.9 mph 56 % 0.0 in
10:58 4.7 °F -3.3 °F 1028.0 in NNE 5.6 mph 5.6 mph 56 % 0.0 in
11:01 4.7 °F -3.3 °F 1028.0 in NNE 3.7 mph 3.7 mph 56 % 0.0 in
11:02 4.8 °F -3.2 °F 1028.0 in ENE 3.7 mph 3.7 mph 56 % 0.0 in
11:04 4.8 °F -3.2 °F 1028.0 in NE 7.4 mph 7.4 mph 56 % 0.0 in
11:09 4.8 °F -3.2 °F 1028.0 in NNE 4.2 mph 4.2 mph 56 % 0.0 in
11:10 4.8 °F -3.2 °F 1028.0 in NNE 5.6 mph 5.6 mph 56 % 0.0 in
11:11 4.8 °F -3.2 °F 1028.0 in NNE 5.6 mph 5.6 mph 56 % 0.0 in
11:15 4.8 °F -3.2 °F 1028.0 in North 5.6 mph 5.6 mph 56 % 0.0 in
11:20 5.0 °F -2.8 °F 1028.0 in WNW 1.9 mph 1.9 mph 57 % 0.0 in
11:25 5.1 °F -2.9 °F 1028.0 in ENE 3.7 mph 3.7 mph 56 % 0.0 in
11:26 5.1 °F -2.9 °F 1027.0 in WSW 3.7 mph 3.7 mph 56 % 0.0 in
11:31 5.2 °F -2.9 °F 1027.0 in NNE 5.0 mph 5.0 mph 56 % 0.0 in
11:32 5.2 °F -2.9 °F 1027.0 in NNE 5.6 mph 5.6 mph 56 % 0.0 in
11:36 5.2 °F -2.9 °F 1027.0 in ENE 3.7 mph 3.7 mph 56 % 0.0 in
11:38 5.2 °F -2.9 °F 1027.0 in NE 5.6 mph 5.6 mph 56 % 0.0 in
11:41 5.2 °F -2.6 °F 1029.0 in WNW 2.6 mph   57 % 0.0 in
11:44 5.3 °F -2.6 °F 1029.0 in North 1.9 mph   57 % 0.0 in
11:49 5.3 °F -2.6 °F 1029.0 in WNW 1.9 mph   57 % 0.0 in
11:50 5.3 °F -2.6 °F 1029.0 in NNE 3.7 mph 3.7 mph 57 % 0.0 in
11:55 5.4 °F -2.4 °F 1028.0 in NNE 1.9 mph   57 % 0.0 in
11:58 5.5 °F -2.3 °F 1028.0 in ESE 1.9 mph 1.9 mph 57 % 0.0 in
12:03 5.6 °F -2.3 °F 1028.0 in NNE 1.9 mph 1.9 mph 57 % 0.0 in
12:08 5.7 °F -2.2 °F 1028.0 in WNW 6.9 mph 6.9 mph 57 % 0.0 in
12:09 5.7 °F -2.2 °F 1028.0 in North 7.4 mph 7.4 mph 57 % 0.0 in
12:14 5.8 °F -2.1 °F 1027.0 in NNW 5.6 mph 5.6 mph 57 % 0.0 in
12:15 5.8 °F -2.1 °F 1027.0 in NNW 5.6 mph 5.6 mph 57 % 0.0 in
12:16 5.9 °F -2.0 °F 1027.0 in WNW 3.7 mph 3.7 mph 57 % 0.0 in
12:21 6.1 °F -1.8 °F 1027.0 in WNW 5.6 mph 5.6 mph 57 % 0.0 in
12:22 6.1 °F -1.6 °F 1027.0 in West 3.7 mph 3.7 mph 58 % 0.0 in
12:24 6.3 °F -1.6 °F 1027.0 in NE 3.7 mph 3.7 mph 57 % 0.0 in
12:28 6.5 °F -1.2 °F 1026.0 in ENE 3.9 mph 3.9 mph 58 % 0.0 in
12:29 6.5 °F -1.2 °F 1026.0 in WSW 6.4 mph 6.4 mph 58 % 0.0 in
12:34 6.6 °F -1.1 °F 1026.0 in WSW 3.7 mph 4.7 mph 58 % 0.0 in
12:36 6.7 °F -1.0 °F 1026.0 in SSW 5.6 mph 5.6 mph 58 % 0.0 in
12:38 6.7 °F -1.0 °F 1026.0 in West 9.3 mph 9.3 mph 58 % 0.0 in
12:43 6.9 °F -0.8 °F 1026.0 in NW 7.4 mph 7.4 mph 58 % 0.0 in
12:44 6.9 °F -0.8 °F 1026.0 in NNW 7.4 mph 7.4 mph 58 % 0.0 in
12:48 6.9 °F -0.8 °F 1026.0 in WSW 7.4 mph 7.4 mph 58 % 0.0 in
12:52 7.0 °F -0.7 °F 1026.0 in WNW 7.4 mph 7.4 mph 58 % 0.0 in
12:54 7.0 °F -0.7 °F 1026.0 in WNW 7.4 mph 7.4 mph 58 % 0.0 in
12:59 7.0 °F -0.7 °F 1026.0 in WNW 1.9 mph 3.9 mph 58 % 0.0 in
13:00 7.0 °F -0.7 °F 1026.0 in WNW 1.9 mph 3.9 mph 58 % 0.0 in
13:05 7.1 °F -0.6 °F 1026.0 in WNW 1.9 mph 3.9 mph 58 % 0.0 in
13:07 7.1 °F -0.6 °F 1026.0 in WNW 7.4 mph 7.6 mph 58 % 0.0 in
13:10 7.1 °F -0.6 °F 1026.0 in SW 5.6 mph 5.6 mph 58 % 0.0 in
13:13 7.1 °F -0.6 °F 1026.0 in West 5.6 mph 5.6 mph 58 % 0.0 in
13:18 7.2 °F -0.5 °F 1026.0 in West 5.6 mph 5.6 mph 58 % 0.0 in
13:19 7.2 °F -0.5 °F 1026.0 in WSW 4.7 mph 4.7 mph 58 % 0.0 in
13:24 7.2 °F -0.5 °F 1026.0 in WNW 9.3 mph 9.3 mph 58 % 0.0 in
13:26 7.3 °F -0.4 °F 1026.0 in WNW 7.4 mph 7.4 mph 58 % 0.0 in
13:31 7.4 °F -0.3 °F 1026.0 in WSW 6.1 mph 6.1 mph 58 % 0.0 in
13:34 7.4 °F -0.3 °F 1026.0 in West 7.4 mph 7.4 mph 58 % 0.0 in
13:36 7.4 °F -0.3 °F 1026.0 in WSW 7.4 mph 7.4 mph 58 % 0.0 in
13:39 7.5 °F -0.2 °F 1026.0 in WNW 7.4 mph 7.4 mph 58 % 0.0 in
13:42 7.5 °F -0.2 °F 1023.9 in West 11.1 mph 11.1 mph 58 % 0.0 in
13:45 7.5 °F -0.2 °F 1023.9 in West 3.2 mph 11.3 mph 58 % 0.0 in
13:47 7.6 °F -0.2 °F 1023.9 in WSW 5.6 mph 5.6 mph 58 % 0.0 in
13:52 7.7 °F -0.1 °F 1023.9 in WSW 3.7 mph 3.7 mph 58 % 0.0 in
13:57 7.8 °F 0.1 °F 1023.9 in West 4.2 mph   58 % 0.0 in
13:58 7.8 °F 0.1 °F 1023.9 in SSW 6.9 mph 6.9 mph 58 % 0.0 in
14:02 7.9 °F -0.1 °F 1023.9 in SW 5.6 mph 5.6 mph 57 % 0.0 in
14:04 8.0 °F 0.0 °F 1023.9 in NW 3.7 mph 3.7 mph 57 % 0.0 in
14:09 8.0 °F 0.0 °F 1023.9 in NW 3.7 mph 3.7 mph 57 % 0.0 in
14:10 8.0 °F 0.0 °F 1023.9 in West 3.7 mph 3.7 mph 57 % 0.0 in
14:15 8.1 °F 0.1 °F 1023.9 in South 3.7 mph 3.7 mph 57 % 0.0 in
14:20 8.2 °F 0.2 °F 1023.9 in SW 3.9 mph 3.9 mph 57 % 0.0 in
14:24 8.2 °F 0.2 °F 1023.9 in North 3.2 mph 3.2 mph 57 % 0.0 in
14:26 8.2 °F 0.2 °F 1023.9 in WNW 3.7 mph   57 % 0.0 in
14:31 8.2 °F -0.1 °F 1023.9 in WNW 9.3 mph 9.3 mph 56 % 0.0 in
14:32 8.2 °F -0.1 °F 1023.9 in WNW 7.9 mph 7.9 mph 56 % 0.0 in
14:33 8.2 °F -0.1 °F 1023.9 in SW 5.6 mph 5.6 mph 56 % 0.0 in
14:38 8.3 °F 0.0 °F 1023.9 in NE 9.3 mph 9.3 mph 56 % 0.0 in
14:39 8.3 °F 0.0 °F 1023.9 in WSW 7.4 mph 7.4 mph 56 % 0.0 in
14:43 8.3 °F 0.0 °F 1023.9 in NNW 9.3 mph 9.3 mph 56 % 0.0 in
14:45 8.3 °F 0.0 °F 1023.9 in WNW 3.7 mph 5.0 mph 56 % 0.0 in
14:50 8.3 °F -0.2 °F 1023.9 in SW 6.1 mph 6.1 mph 55 % 0.0 in
14:55 8.3 °F -0.2 °F 1022.9 in WNW 5.8 mph 5.8 mph 55 % 0.0 in
14:57 8.3 °F -0.2 °F 1022.9 in WNW 5.6 mph 5.6 mph 55 % 0.0 in
15:01 8.3 °F -0.2 °F 1022.9 in NNE 7.6 mph 7.6 mph 55 % 0.0 in
15:02 8.2 °F -0.3 °F 1022.9 in ENE 9.5 mph 9.5 mph 55 % 0.0 in
15:05 7.8 °F -0.7 °F 1022.9 in NNE 7.4 mph 7.4 mph 55 % 0.0 in
15:07 7.6 °F -0.9 °F 1022.9 in NNE 7.9 mph 7.9 mph 55 % 0.0 in
15:12 7.3 °F -1.2 °F 1022.9 in NNW 3.7 mph 3.7 mph 55 % 0.0 in
15:17 7.2 °F -1.2 °F 1022.9 in North 5.6 mph 5.6 mph 55 % 0.0 in
15:18 7.2 °F -1.2 °F 1022.9 in ENE 5.6 mph 5.6 mph 55 % 0.0 in
15:23 7.1 °F -1.3 °F 1022.9 in NNE 5.6 mph 5.6 mph 55 % 0.0 in
15:24 7.1 °F -1.3 °F 1022.9 in SW 3.7 mph 3.7 mph 55 % 0.0 in
15:29 6.9 °F -1.6 °F 1022.9 in NNE 7.4 mph 7.4 mph 55 % 0.0 in
15:31 6.8 °F -1.6 °F 1022.9 in NE 9.3 mph 9.3 mph 55 % 0.0 in
15:36 6.9 °F -1.6 °F 1022.9 in WNW 2.6 mph 2.6 mph 55 % 0.0 in
15:41 6.9 °F -1.3 °F 1021.9 in WNW 3.7 mph 3.7 mph 56 % 0.0 in
15:46 6.9 °F -1.3 °F 1021.9 in WSW 3.7 mph 3.7 mph 56 % 0.0 in
15:47 6.9 °F -1.3 °F 1021.9 in WSW 3.7 mph 3.7 mph 56 % 0.0 in
15:52 6.8 °F -1.4 °F 1021.9 in ESE 7.4 mph 7.4 mph 56 % 0.0 in
15:53 6.8 °F -1.4 °F 1021.9 in SSW 5.6 mph 5.6 mph 56 % 0.0 in
15:58 6.8 °F -1.4 °F 1022.9 in ENE 4.7 mph 4.7 mph 56 % 0.0 in
16:01 6.8 °F -1.4 °F 1022.9 in NNE 9.3 mph 9.3 mph 56 % 0.0 in
16:03 6.8 °F -1.4 °F 1022.9 in NNE 5.8 mph 5.8 mph 56 % 0.0 in
16:08 6.8 °F -1.4 °F 1022.9 in NE 7.4 mph 7.4 mph 56 % 0.0 in
16:10 6.8 °F -1.4 °F 1022.9 in ENE 5.6 mph 5.6 mph 56 % 0.0 in
16:15 6.7 °F -1.4 °F 1021.9 in SE 6.1 mph 6.1 mph 56 % 0.0 in
16:20 6.7 °F -1.4 °F 1021.9 in NNE 3.7 mph 3.7 mph 56 % 0.0 in
16:21 6.7 °F -1.4 °F 1021.9 in ESE 3.7 mph 3.7 mph 56 % 0.0 in
16:22 6.7 °F -1.4 °F 1021.9 in ENE 5.6 mph 5.6 mph 56 % 0.0 in
16:27 6.6 °F -1.6 °F 1021.9 in NE 3.7 mph 3.7 mph 56 % 0.0 in
16:29 6.6 °F -1.6 °F 1021.9 in North 3.7 mph 3.9 mph 56 % 0.0 in
16:32 6.6 °F -1.6 °F 1021.9 in NNE 3.9 mph 3.9 mph 56 % 0.0 in
16:36 6.5 °F -1.4 °F 1021.9 in East 3.7 mph 4.2 mph 57 % 0.0 in
16:38 6.5 °F -1.4 °F 1021.9 in NNE 5.6 mph 5.6 mph 57 % 0.0 in
16:42 6.5 °F -1.4 °F 1021.9 in NNE 6.1 mph 6.1 mph 57 % 0.0 in
16:43 6.5 °F -1.4 °F 1021.9 in WNW 5.6 mph 5.6 mph 57 % 0.0 in
16:48 6.5 °F -1.4 °F 1021.9 in WNW 2.3 mph 2.3 mph 57 % 0.0 in
16:49 6.5 °F -1.4 °F 1021.9 in WNW 1.9 mph 2.3 mph 57 % 0.0 in
16:54 6.5 °F -1.4 °F 1021.9 in North 3.7 mph 3.7 mph 57 % 0.0 in
16:59 6.5 °F -1.4 °F 1021.9 in ENE 3.9 mph 3.9 mph 57 % 0.0 in
17:00 6.5 °F -1.4 °F 1021.9 in ENE 5.6 mph 5.6 mph 57 % 0.0 in
17:03 6.5 °F -1.4 °F 1021.9 in West 4.2 mph 4.2 mph 57 % 0.0 in
17:06 6.5 °F -1.4 °F 1021.9 in SSW 3.9 mph 4.2 mph 57 % 0.0 in
17:11 6.4 °F -1.5 °F 1020.9 in NE 3.7 mph 3.7 mph 57 % 0.0 in
17:12 6.4 °F -1.3 °F 1020.9 in SE 2.3 mph 2.3 mph 58 % 0.0 in
17:16 6.3 °F -1.4 °F 1020.9 in South 5.6 mph 5.6 mph 58 % 0.0 in
17:19 6.3 °F -1.4 °F 1020.9 in West 4.7 mph 4.7 mph 58 % 0.0 in
17:24 6.5 °F -1.2 °F 1020.9 in South 7.4 mph 7.4 mph 58 % 0.0 in
17:28 6.9 °F -0.8 °F 1020.9 in WSW 7.4 mph 7.4 mph 58 % 0.0 in
17:30 7.0 °F -0.7 °F 1020.9 in WSW 4.8 mph 9.7 mph 58 % 0.0 in
17:34 7.4 °F -0.1 °F 1020.9 in WSW 7.4 mph 7.4 mph 59 % 0.0 in
17:39 7.6 °F 0.1 °F 1020.9 in ENE 2.6 mph 2.6 mph 59 % 0.0 in
17:41 7.6 °F 0.1 °F 1019.9 in SE 3.7 mph 3.7 mph 59 % 0.0 in
17:45 7.7 °F 0.2 °F 1019.9 in ENE 1.6 mph 3.2 mph 59 % 0.0 in
17:48 7.8 °F 0.3 °F 1019.9 in ENE 3.7 mph 3.7 mph 59 % 0.0 in
17:50 7.8 °F 0.3 °F 1019.9 in ENE 3.7 mph 3.7 mph 59 % 0.0 in
17:55 7.8 °F 0.3 °F 1019.9 in WSW 1.9 mph 1.9 mph 59 % 0.0 in
17:57 7.9 °F 0.4 °F 1019.9 in South 4.7 mph 4.7 mph 59 % 0.0 in
18:01 7.9 °F 0.4 °F 1019.9 in NE 6.1 mph 6.1 mph 59 % 0.0 in
18:03 7.5 °F -0.2 °F 1019.9 in North 12.6 mph 12.6 mph 58 % 0.0 in
18:08 7.0 °F -0.7 °F 1019.9 in North 7.6 mph 7.6 mph 58 % 0.0 in
18:13 6.7 °F -1.0 °F 1020.9 in ENE 3.2 mph 3.2 mph 58 % 0.0 in
18:18 6.6 °F -1.1 °F 1020.9 in WNW 2.6 mph   58 % 0.0 in
18:19 6.5 °F -1.4 °F 1020.9 in WNW 3.7 mph 3.7 mph 57 % 0.0 in
18:20 6.5 °F -1.4 °F 1020.9 in WNW 3.7 mph 3.7 mph 57 % 0.0 in
18:25 6.4 °F -1.5 °F 1020.9 in NNW 1.9 mph 1.9 mph 57 % 0.0 in
18:30 6.4 °F -1.5 °F 1020.9 in North 7.4 mph 7.4 mph 57 % 0.0 in
18:31 6.4 °F -1.3 °F 1020.9 in NNE 3.7 mph 3.7 mph 58 % 0.0 in
18:35 6.3 °F -1.4 °F 1020.9 in West 3.7 mph 3.7 mph 58 % 0.0 in
18:39 6.2 °F -1.7 °F 1020.9 in NNW 3.7 mph 3.7 mph 57 % 0.0 in
18:40 6.2 °F -1.7 °F 1019.9 in NNE 3.7 mph 3.7 mph 57 % 0.0 in
18:45 6.3 °F -1.4 °F 1019.9 in NW 3.7 mph 3.7 mph 58 % 0.0 in
18:48 6.3 °F -1.4 °F 1019.9 in ENE 5.6 mph 5.6 mph 58 % 0.0 in
18:50 6.4 °F -1.3 °F 1019.9 in ENE 6.1 mph 6.1 mph 58 % 0.0 in
18:55 6.4 °F -1.3 °F 1021.9 in ENE 1.9 mph 2.3 mph 58 % 0.0 in
18:57 6.4 °F -1.3 °F 1021.9 in South 5.6 mph 5.6 mph 58 % 0.0 in
19:00 6.5 °F -1.2 °F 1021.9 in NNE 9.3 mph 9.3 mph 58 % 0.0 in
19:03 6.5 °F -1.2 °F 1021.9 in NNW 1.9 mph 1.9 mph 58 % 0.0 in
19:05 6.5 °F -1.2 °F 1021.9 in SSE 6.4 mph 6.4 mph 58 % 0.0 in
19:10 6.5 °F -1.2 °F 1020.9 in SSW 4.7 mph 4.7 mph 58 % 0.0 in
19:11 6.5 °F -1.2 °F 1020.9 in WNW 5.6 mph 5.6 mph 58 % 0.0 in
19:16 6.5 °F -1.2 °F 1020.9 in NNE 5.6 mph 5.6 mph 58 % 0.0 in
19:20 2.9 °F -2.8 °F 1024.9 in WSW 1.6 mph 3.2 mph 66 % 0.0 in
19:21 6.4 °F -1.1 °F 1020.9 in NE 5.3 mph 5.3 mph 59 % 0.0 in
19:23 6.4 °F -1.1 °F 1020.9 in NE 5.6 mph 5.6 mph 59 % 0.0 in
19:26 6.4 °F -1.1 °F 1020.9 in ESE 4.2 mph 4.2 mph 59 % 0.0 in
19:30 6.4 °F -0.8 °F 1020.9 in WSW 3.9 mph 3.9 mph 60 % 0.0 in
19:34 6.3 °F -1.1 °F 1020.9 in West 3.7 mph 3.7 mph 59 % 0.0 in
19:36 6.3 °F -1.1 °F 1020.9 in West 3.7 mph 3.7 mph 59 % 0.0 in
19:40 6.3 °F -1.1 °F 1020.9 in West 2.3 mph 2.3 mph 59 % 0.0 in
19:41 6.3 °F -1.1 °F 1020.9 in West 1.9 mph 1.9 mph 59 % 0.0 in
19:42 6.3 °F -1.1 °F 1020.9 in West 1.9 mph 1.9 mph 59 % 0.0 in
19:47 6.2 °F -1.0 °F 1020.9 in East 4.2 mph 4.2 mph 60 % 0.0 in
19:48 6.2 °F -1.0 °F 1020.9 in ESE 4.2 mph 4.2 mph 60 % 0.0 in
19:50 2.9 °F -2.8 °F 1023.9 in WNW 1.6 mph 3.2 mph 66 % 0.0 in
19:53 6.1 °F -1.1 °F 1020.9 in ESE 3.7 mph 3.9 mph 60 % 0.0 in
19:57 6.1 °F -1.1 °F 1020.9 in SE 3.7 mph 3.7 mph 60 % 0.0 in
20:00 6.1 °F -1.1 °F 1020.9 in WNW 3.5 mph 3.5 mph 60 % 0.0 in
20:02 6.1 °F -1.3 °F 1020.9 in WNW 3.7 mph 3.7 mph 59 % 0.0 in
20:07 6.1 °F -1.1 °F 1020.9 in Calm     60 % 0.0 in
20:09 6.0 °F -1.2 °F 1020.9 in NE 3.9 mph 3.9 mph 60 % 0.0 in
20:10 2.7 °F -2.8 °F 1023.9 in West 1.6 mph 3.2 mph 67 % 0.0 in
20:12 5.9 °F -1.3 °F 1019.9 in North 5.6 mph 5.6 mph 60 % 0.0 in
20:15 5.8 °F -1.4 °F 1019.9 in NE 1.9 mph 1.9 mph 60 % 0.0 in
20:20 5.6 °F -1.3 °F 1019.9 in ESE 2.6 mph 2.6 mph 61 % 0.0 in
20:21 5.5 °F -1.4 °F 1019.9 in ESE 3.7 mph 3.7 mph 61 % 0.0 in
20:23 5.5 °F -1.4 °F 1019.9 in SW 1.9 mph   61 % 0.0 in
20:26 5.4 °F -1.5 °F 1020.9 in WSW 3.7 mph 3.7 mph 61 % 0.0 in
20:28 5.4 °F -1.5 °F 1020.9 in ENE 1.9 mph   61 % 0.0 in
20:30 2.6 °F -2.9 °F 1023.9 in NNW 3.2 mph 3.2 mph 67 % 0.0 in
20:33 5.5 °F -1.4 °F 1020.9 in WNW 1.9 mph 1.9 mph 61 % 0.0 in
20:39 5.5 °F -1.4 °F 1020.9 in NNE 9.5 mph 9.5 mph 61 % 0.0 in
20:40 2.5 °F -2.8 °F 1023.9 in NW 1.6 mph 3.2 mph 68 % 0.0 in
20:44 5.7 °F -1.2 °F 1020.9 in NNE 7.4 mph 7.4 mph 61 % 0.0 in
20:45 5.8 °F -1.2 °F 1020.9 in NE 7.4 mph 7.4 mph 61 % 0.0 in
20:50 5.8 °F -1.2 °F 1020.9 in NNE 9.5 mph 9.5 mph 61 % 0.0 in
20:52 5.9 °F -1.1 °F 1020.9 in NNE 13.0 mph 13.0 mph 61 % 0.0 in
20:57 5.8 °F -1.2 °F 1021.9 in NNE 11.4 mph 11.4 mph 61 % 0.0 in
20:58 5.8 °F -1.2 °F 1021.9 in NNE 11.4 mph 11.4 mph 61 % 0.0 in
21:00 2.2 °F -3.1 °F 1024.9 in Calm   1.6 mph 68 % 0.0 in
21:02 5.7 °F -1.2 °F 1021.9 in NNE 9.3 mph 9.3 mph 61 % 0.0 in
21:06 5.7 °F -1.2 °F 1021.9 in NNE 9.3 mph 9.3 mph 61 % 0.0 in
21:08 5.7 °F -1.2 °F 1021.9 in WNW 9.3 mph 9.3 mph 61 % 0.0 in
21:13 5.7 °F -1.2 °F 1021.9 in NNE 9.3 mph 9.3 mph 61 % 0.0 in
21:15 5.7 °F -1.2 °F 1021.9 in WNW 5.6 mph 5.6 mph 61 % 0.0 in
21:17 5.6 °F -1.3 °F 1021.9 in ENE 2.6 mph 2.6 mph 61 % 0.0 in
21:20 5.6 °F -1.3 °F 1021.9 in NNE 6.1 mph 6.1 mph 61 % 0.0 in
21:25 5.6 °F -1.3 °F 1021.9 in ENE 5.6 mph 5.6 mph 61 % 0.0 in
21:26 5.6 °F -1.3 °F 1021.9 in East 7.4 mph 7.4 mph 61 % 0.0 in
21:27 5.6 °F -1.3 °F 1021.9 in North 5.6 mph 6.1 mph 61 % 0.0 in
21:32 5.6 °F -1.3 °F 1021.9 in West 5.6 mph 5.6 mph 61 % 0.0 in
21:37 5.5 °F -1.4 °F 1021.9 in West 1.9 mph   61 % 0.0 in
21:38 5.5 °F -1.4 °F 1021.9 in West 1.9 mph   61 % 0.0 in
21:40 1.8 °F -3.5 °F 1026.0 in West 1.6 mph 4.8 mph 68 % 0.0 in
21:43 5.3 °F -1.4 °F 1020.9 in Calm     62 % 0.0 in
21:44 5.3 °F -1.4 °F 1020.9 in Calm     62 % 0.0 in
21:48 5.3 °F -1.4 °F 1020.9 in NE 1.9 mph 1.9 mph 62 % 0.0 in
21:49 5.3 °F -1.4 °F 1020.9 in NNW 1.9 mph   62 % 0.0 in
21:50 1.9 °F -3.4 °F 1026.0 in West 1.6 mph 3.2 mph 68 % 0.0 in
21:53 5.3 °F -1.4 °F 1020.9 in NW 2.6 mph   62 % 0.0 in
21:55 5.3 °F -1.4 °F 1021.9 in NNE 1.9 mph   62 % 0.0 in
21:59 5.2 °F -1.5 °F 1021.9 in WNW 1.9 mph 2.3 mph 62 % 0.0 in
22:00 1.7 °F -3.6 °F 1026.0 in NNW 3.2 mph 6.4 mph 68 % 0.0 in
22:04 5.2 °F -1.5 °F 1021.9 in ENE 1.9 mph   62 % 0.0 in
22:05 5.2 °F -1.5 °F 1021.9 in NE 3.7 mph 3.7 mph 62 % 0.0 in
22:10 5.3 °F -1.2 °F 1021.9 in ESE 3.7 mph   63 % 0.0 in
22:12 5.2 °F -1.3 °F 1021.9 in Calm     63 % 0.0 in
22:16 5.2 °F -1.3 °F 1021.9 in NE 3.7 mph 3.7 mph 63 % 0.0 in
22:20 1.5 °F -3.8 °F 1026.0 in Calm   3.2 mph 68 % 0.0 in
22:21 5.1 °F -1.4 °F 1021.9 in ENE 5.6 mph 5.6 mph 63 % 0.0 in
22:26 5.0 °F -1.4 °F 1021.9 in ENE 4.7 mph 4.7 mph 63 % 0.0 in
22:29 5.0 °F -1.4 °F 1021.9 in ENE 5.3 mph 5.3 mph 63 % 0.0 in
22:30 1.4 °F -3.9 °F 1026.0 in West 1.6 mph 3.2 mph 68 % 0.0 in
22:32 4.9 °F -1.6 °F 1021.9 in NNE 5.6 mph 5.6 mph 63 % 0.0 in
22:37 4.9 °F -1.6 °F 1021.9 in East 3.7 mph 3.9 mph 63 % 0.0 in
22:38 4.9 °F -1.6 °F 1021.9 in NE 7.4 mph 7.4 mph 63 % 0.0 in
22:40 1.3 °F -3.9 °F 1026.0 in WSW 3.2 mph 4.8 mph 68 % 0.0 in
22:43 4.8 °F -1.7 °F 1022.9 in NE 9.3 mph 9.3 mph 63 % 0.0 in
22:44 4.8 °F -1.7 °F 1022.9 in NNE 13.0 mph 13.0 mph 63 % 0.0 in
22:49 4.7 °F -1.8 °F 1022.9 in ENE 5.6 mph 5.6 mph 63 % 0.0 in
22:50 1.5 °F -3.8 °F 1027.0 in WSW 3.2 mph 4.8 mph 68 % 0.0 in
22:54 4.5 °F -1.9 °F 1022.9 in NNE 3.7 mph 3.9 mph 63 % 0.0 in
22:58 4.4 °F -2.1 °F 1022.9 in NE 7.4 mph 7.4 mph 63 % 0.0 in
22:59 4.4 °F -2.1 °F 1022.9 in NNW 3.7 mph 3.7 mph 63 % 0.0 in
23:00 1.5 °F -3.4 °F 1027.0 in WSW 1.6 mph 3.2 mph 70 % 0.0 in
23:04 4.3 °F -2.1 °F 1022.9 in NNE 3.7 mph 3.7 mph 63 % 0.0 in
23:05 4.3 °F -2.1 °F 1022.9 in NNE 3.7 mph 3.7 mph 63 % 0.0 in
23:07 4.3 °F -2.1 °F 1022.9 in WNW 5.0 mph 5.0 mph 63 % 0.0 in
23:10 4.2 °F -2.2 °F 1022.9 in NNE 1.9 mph 1.9 mph 63 % 0.0 in
23:13 4.2 °F -2.2 °F 1022.9 in ENE 2.3 mph 2.3 mph 63 % 0.0 in
23:18 4.2 °F -2.2 °F 1022.9 in ENE 1.9 mph 1.9 mph 63 % 0.0 in
23:19 4.1 °F -2.3 °F 1022.9 in NW 2.3 mph 2.3 mph 63 % 0.0 in
23:20 1.4 °F -3.5 °F 1026.0 in Calm   1.6 mph 70 % 0.0 in
23:23 4.1 °F -2.3 °F 1022.9 in WNW 1.9 mph   63 % 0.0 in
23:28 4.0 °F -2.4 °F 1022.9 in Calm     63 % 0.0 in
23:30 1.3 °F -3.4 °F 1026.0 in NNE 1.6 mph 1.6 mph 71 % 0.0 in
23:33 3.9 °F -2.5 °F 1022.9 in West 3.7 mph 3.7 mph 63 % 0.0 in
23:34 3.9 °F -2.5 °F 1022.9 in West 1.9 mph 1.9 mph 63 % 0.0 in
23:39 3.8 °F -2.6 °F 1022.9 in West 1.9 mph 1.9 mph 63 % 0.0 in
23:40 1.3 °F -3.2 °F 1026.0 in ENE 1.6 mph 1.6 mph 72 % 0.0 in
23:42 3.8 °F -2.6 °F 1022.9 in West 1.9 mph   63 % 0.0 in
23:45 3.7 °F -2.5 °F 1022.9 in West 1.9 mph   64 % 0.0 in
23:50 3.7 °F -2.5 °F 1022.9 in Calm     64 % 0.0 in
23:54 3.6 °F -2.6 °F 1022.9 in Calm     64 % 0.0 in
23:56 3.6 °F -2.6 °F 1022.9 in Calm     64 % 0.0 in
Meteo Sesrovires
Elogis d' Weather Underground - 2 mb

Guio original per  Jim McMurry - jmcmurry@mwt.net Adaptat per a la plantilla per  Wim van der Kuil - Leuven-Template.eu

Trobareu la nostra informacio del temps tambe a:

Weather Underground

AWEKAS